Time;durP1;ratioP1;P1;durP2;ratioP2;P2;SDS_P1;SDS_P2;PMS_P1;PMS_P2;Temp;Humidity;BMP_temperature;BMP_pressure;BME280_temperature;BME280_humidity;BME280_pressure;Samples;Min_cycle;Max_cycle;Signal;HPM_P1;HPM_P2
2023/09/25 00:01:49;;;;;;;5.20;1.80;;;;;;;16.44;90.95;96069.52;110299;1276;22113;-75
2023/09/25 00:04:18;;;;;;;7.60;1.60;;;;;;;16.37;91.04;96081.29;110631;1276;22184;-76
2023/09/25 00:06:46;;;;;;;7.10;1.60;;;;;;;16.30;90.82;96099.30;110575;1276;22180;-76
2023/09/25 00:09:17;;;;;;;8.20;1.80;;;;;;;16.21;91.63;96107.60;110547;1276;22188;-75
2023/09/25 00:11:45;;;;;;;11.80;2.20;;;;;;;16.17;92.18;96106.81;110582;1276;22265;-76
2023/09/25 00:14:14;;;;;;;6.70;1.90;;;;;;;16.19;92.19;96100.89;110573;1265;22824;-76
2023/09/25 00:16:42;;;;;;;7.60;1.80;;;;;;;16.22;92.05;96097.98;110630;1276;22922;-76
2023/09/25 00:19:10;;;;;;;6.60;1.60;;;;;;;16.25;92.01;96092.90;110422;1276;22833;-76
2023/09/25 00:21:40;;;;;;;8.60;2.10;;;;;;;16.27;91.84;96095.85;110450;1276;22135;-75
2023/09/25 00:24:12;;;;;;;5.60;1.80;;;;;;;16.26;92.03;96107.09;110593;1276;22151;-77
2023/09/25 00:26:43;;;;;;;4.70;1.50;;;;;;;16.21;92.12;96107.05;110554;1276;22971;-75
2023/09/25 00:29:13;;;;;;;4.80;1.80;;;;;;;16.21;92.43;96112.55;110595;1276;22791;-76
2023/09/25 00:31:42;;;;;;;11.50;2.20;;;;;;;16.27;92.58;96111.31;110329;1268;22276;-77
2023/09/25 00:34:12;;;;;;;10.70;1.90;;;;;;;16.33;92.55;96108.63;110328;1276;22194;-76
2023/09/25 00:36:41;;;;;;;7.60;1.60;;;;;;;16.34;91.97;96109.48;110625;1276;22188;-76
2023/09/25 00:39:09;;;;;;;7.80;2.30;;;;;;;16.33;91.93;96121.73;110579;1276;22795;-76
2023/09/25 00:41:50;;;;;;;8.10;1.30;;;;;;;16.36;91.85;96118.48;110564;1276;22220;-77
2023/09/25 00:44:22;;;;;;;4.70;1.30;;;;;;;16.33;91.58;96116.95;110595;1276;22188;-77
2023/09/25 00:46:54;;;;;;;5.30;1.50;;;;;;;16.34;91.70;96127.41;110406;1276;22793;-77
2023/09/25 00:49:22;;;;;;;11.80;2.00;;;;;;;16.36;91.79;96127.34;110449;1276;22123;-76
2023/09/25 00:52:00;;;;;;;5.90;1.50;;;;;;;16.37;91.53;96130.51;110610;1276;22197;-76
2023/09/25 00:54:33;;;;;;;12.50;2.00;;;;;;;16.37;91.55;96146.48;110590;1276;22123;-76
2023/09/25 00:57:10;;;;;;;8.60;2.30;;;;;;;16.35;91.11;96147.98;110388;1276;22176;-76
2023/09/25 00:59:40;;;;;;;10.40;1.70;;;;;;;16.31;91.12;96150.91;110573;1276;22217;-77
2023/09/25 01:02:09;;;;;;;7.20;1.90;;;;;;;16.32;91.49;96147.52;110578;1276;22303;-77
2023/09/25 01:04:40;;;;;;;6.50;2.00;;;;;;;16.36;91.86;96149.02;110495;1276;22134;-76
2023/09/25 01:07:08;;;;;;;6.90;1.60;;;;;;;16.37;91.48;96147.53;110397;1276;22326;-76
2023/09/25 01:09:36;;;;;;;9.40;2.20;;;;;;;16.34;91.08;96147.80;110556;1276;22220;-76
2023/09/25 01:12:06;;;;;;;5.20;1.40;;;;;;;16.31;91.17;96150.58;110571;1276;22102;-76
2023/09/25 01:14:34;;;;;;;8.90;1.80;;;;;;;16.27;91.08;96148.95;110451;1276;22318;-76
2023/09/25 01:17:03;;;;;;;6.20;1.50;;;;;;;16.20;90.83;96148.80;110572;1276;22153;-76
2023/09/25 01:19:32;;;;;;;7.60;1.90;;;;;;;16.21;91.55;96156.05;110583;1276;22200;-76
2023/09/25 01:22:00;;;;;;;10.50;1.70;;;;;;;16.25;91.80;96152.02;110593;1276;22874;-76
2023/09/25 01:24:28;;;;;;;9.10;1.50;;;;;;;16.28;91.34;96151.39;110454;1276;22140;-76
2023/09/25 01:26:57;;;;;;;7.60;1.50;;;;;;;16.30;91.80;96147.59;110614;1275;22155;-76
2023/09/25 01:29:25;;;;;;;9.00;1.50;;;;;;;16.32;91.18;96151.43;110571;1276;22927;-76
2023/09/25 01:31:53;;;;;;;8.70;1.80;;;;;;;16.30;91.16;96155.59;110488;1276;22870;-76
2023/09/25 01:34:23;;;;;;;7.50;1.30;;;;;;;16.30;91.26;96150.96;110584;1265;22706;-76
2023/09/25 01:36:51;;;;;;;9.30;1.30;;;;;;;16.26;90.46;96155.15;110558;1276;22328;-76
2023/09/25 01:39:20;;;;;;;7.90;2.40;;;;;;;16.18;90.77;96151.00;110334;1276;22764;-76
2023/09/25 01:41:49;;;;;;;5.80;1.10;;;;;;;16.15;90.64;96150.39;110510;1276;22112;-76
2023/09/25 01:44:17;;;;;;;8.10;1.10;;;;;;;16.05;90.29;96147.67;110616;1276;22122;-76
2023/09/25 01:46:45;;;;;;;6.30;1.20;;;;;;;15.99;90.98;96144.48;110454;1276;22226;-76
2023/09/25 01:49:14;;;;;;;8.90;1.40;;;;;;;15.94;90.58;96143.92;110364;1276;22231;-76
2023/09/25 01:51:50;;;;;;;6.70;1.30;;;;;;;15.88;91.05;96143.59;110592;1276;22206;-76
2023/09/25 01:54:18;;;;;;;5.70;1.20;;;;;;;15.85;90.56;96148.66;110560;1276;22139;-76
2023/09/25 01:56:46;;;;;;;6.30;1.40;;;;;;;15.74;90.55;96150.22;110441;1276;22176;-76
2023/09/25 01:59:15;;;;;;;4.90;2.00;;;;;;;15.64;90.40;96152.24;110451;1276;22190;-76
2023/09/25 02:01:43;;;;;;;9.60;1.30;;;;;;;15.64;91.22;96155.09;110501;1276;22262;-76
2023/09/25 02:04:11;;;;;;;7.60;1.40;;;;;;;15.61;90.88;96155.36;110564;1275;22997;-76
2023/09/25 02:06:40;;;;;;;11.80;1.50;;;;;;;15.59;91.20;96159.48;110498;1276;22171;-76
2023/09/25 02:09:10;;;;;;;8.20;1.30;;;;;;;15.50;91.20;96163.31;110472;1276;22237;-76
2023/09/25 02:11:48;;;;;;;4.70;1.30;;;;;;;15.46;91.54;96168.37;110594;1276;22320;-76
2023/09/25 02:14:17;;;;;;;6.00;1.80;;;;;;;15.40;91.00;96177.05;110545;1275;22165;-76
2023/09/25 02:16:45;;;;;;;6.90;1.30;;;;;;;15.41;92.13;96178.64;110584;1276;22373;-77
2023/09/25 02:19:15;;;;;;;6.70;1.30;;;;;;;15.45;92.15;96173.56;110446;1276;22188;-76
2023/09/25 02:21:44;;;;;;;8.40;1.20;;;;;;;15.46;91.90;96172.45;110459;1276;22112;-76
2023/09/25 02:24:12;;;;;;;6.60;1.50;;;;;;;15.39;91.55;96168.77;110597;1275;22901;-76
2023/09/25 02:26:43;;;;;;;6.30;1.30;;;;;;;15.31;91.58;96171.81;110318;1276;22282;-76
2023/09/25 02:29:13;;;;;;;5.80;1.70;;;;;;;15.26;91.28;96173.55;110634;1276;22107;-76
2023/09/25 02:31:41;;;;;;;4.90;1.50;;;;;;;15.21;91.12;96170.88;110434;1276;23016;-76
2023/09/25 02:34:14;;;;;;;3.90;2.30;;;;;;;15.17;91.55;96169.91;110600;1276;22273;-76
2023/09/25 02:36:42;;;;;;;7.30;1.40;;;;;;;15.19;91.77;96167.19;110575;1276;23031;-77
2023/09/25 02:39:13;;;;;;;6.10;1.20;;;;;;;15.15;91.19;96170.67;110490;1276;22146;-77
2023/09/25 02:41:44;;;;;;;8.40;1.20;;;;;;;15.11;91.14;96172.55;110459;1276;22342;-77
2023/09/25 02:44:13;;;;;;;9.00;1.30;;;;;;;15.09;91.12;96168.16;110431;1276;22682;-77
2023/09/25 02:46:41;;;;;;;12.70;1.10;;;;;;;15.10;91.72;96172.41;110419;1276;22393;-77
2023/09/25 02:49:12;;;;;;;11.20;1.20;;;;;;;15.20;92.30;96169.46;110427;1276;22230;-76
2023/09/25 02:51:42;;;;;;;3.80;1.10;;;;;;;15.18;91.08;96183.01;110451;1276;22845;-77
2023/09/25 02:54:11;;;;;;;5.00;1.40;;;;;;;15.15;91.23;96188.02;110589;1276;22106;-77
2023/09/25 02:56:39;;;;;;;4.90;0.70;;;;;;;15.16;90.97;96183.92;110489;1276;22547;-77
2023/09/25 02:59:11;;;;;;;7.20;1.10;;;;;;;15.07;90.59;96188.08;110589;1276;22569;-77
2023/09/25 03:01:48;;;;;;;10.00;1.50;;;;;;;15.05;90.88;96196.80;110539;1276;22937;-77
2023/09/25 03:04:17;;;;;;;6.10;0.90;;;;;;;15.00;90.55;96199.41;110485;1276;22252;-77
2023/09/25 03:06:48;;;;;;;4.50;0.80;;;;;;;14.92;90.82;96203.51;110573;1276;22267;-77
2023/09/25 03:09:16;;;;;;;7.70;1.10;;;;;;;14.86;91.14;96201.90;110597;1276;22833;-76
2023/09/25 03:11:54;;;;;;;8.80;0.80;;;;;;;14.84;91.09;96201.59;110425;1276;22144;-76
2023/09/25 03:14:25;;;;;;;5.60;1.10;;;;;;;14.85;90.93;96199.62;110609;1276;22828;-76
2023/09/25 03:16:53;;;;;;;6.80;0.90;;;;;;;14.86;91.20;96201.54;110269;1276;22994;-77
2023/09/25 03:19:35;;;;;;;3.90;0.70;;;;;;;14.90;91.06;96201.96;110435;1276;22161;-76
2023/09/25 03:22:05;;;;;;;5.60;0.90;;;;;;;14.93;90.95;96204.19;110603;1276;23023;-77
2023/09/25 03:24:36;;;;;;;8.00;1.00;;;;;;;14.84;90.18;96203.36;110563;1276;22315;-77
2023/09/25 03:27:04;;;;;;;3.90;1.00;;;;;;;14.79;90.60;96206.52;110394;1276;23047;-77
2023/09/25 03:29:35;;;;;;;4.90;1.00;;;;;;;14.74;90.59;96210.73;110565;1276;22124;-77
2023/09/25 03:32:07;;;;;;;4.10;0.80;;;;;;;14.71;91.16;96207.95;110554;1276;22357;-77
2023/09/25 03:34:45;;;;;;;5.50;1.00;;;;;;;14.75;91.46;96212.27;110465;1276;22123;-77
2023/09/25 03:37:14;;;;;;;4.10;0.90;;;;;;;14.81;91.67;96209.31;110576;1276;22118;-76
2023/09/25 03:39:42;;;;;;;3.40;1.10;;;;;;;14.79;90.68;96210.06;110428;1276;22149;-76
2023/09/25 03:42:14;;;;;;;5.00;1.30;;;;;;;14.73;90.79;96217.30;110267;1275;22208;-77
2023/09/25 03:44:57;;;;;;;;;;;;;;;;;;;;;
2023/09/25 03:47:26;;;;;;;3.80;0.70;;;;;;;14.69;91.10;96216.49;110473;1276;22182;-77
2023/09/25 03:50:02;;;;;;;5.30;1.10;;;;;;;14.65;90.48;96218.00;110480;1276;22163;-77
2023/09/25 03:52:31;;;;;;;5.10;0.90;;;;;;;14.57;90.29;96220.88;110420;1276;22139;-77
2023/09/25 03:55:05;;;;;;;5.30;0.60;;;;;;;14.51;90.58;96221.86;110539;1276;23061;-77
2023/09/25 03:57:33;;;;;;;3.80;1.00;;;;;;;14.59;91.23;96226.31;110363;1276;22120;-77
2023/09/25 04:00:06;;;;;;;9.30;0.70;;;;;;;14.61;90.66;96222.73;110524;1276;22213;-77
2023/09/25 04:02:44;;;;;;;4.90;0.90;;;;;;;14.52;90.44;96224.51;110625;1276;22215;-76
2023/09/25 04:05:13;;;;;;;3.10;0.90;;;;;;;14.47;90.40;96227.09;110534;1276;22204;-76
2023/09/25 04:08:00;;;;;;;6.50;0.80;;;;;;;14.53;91.39;96225.92;110469;1276;22061;-77
2023/09/25 04:10:28;;;;;;;1.80;0.60;;;;;;;14.60;91.69;96223.28;110454;1276;22206;-77
2023/09/25 04:13:04;;;;;;;7.80;0.80;;;;;;;14.65;91.59;96220.48;110584;1270;22148;-76
2023/09/25 04:15:33;;;;;;;6.10;0.70;;;;;;;14.65;91.19;96218.71;110581;1276;22126;-76
2023/09/25 04:18:08;;;;;;;3.90;0.90;;;;;;;14.62;90.78;96223.23;110457;1276;22131;-77
2023/09/25 04:20:38;;;;;;;5.60;1.20;;;;;;;14.62;91.28;96228.36;110591;1276;22167;-76
2023/09/25 04:23:07;;;;;;;8.10;1.10;;;;;;;14.65;91.57;96228.80;110565;1276;22895;-77
2023/09/25 04:26:00;;;;;;;;;;;;;;;;;;;;;
2023/09/25 04:28:40;;;;;;;6.70;1.30;;;;;;;14.75;90.78;96238.86;110456;1273;22151;-76
2023/09/25 04:31:12;;;;;;;3.20;0.70;;;;;;;14.72;90.52;96238.39;110397;1264;22227;-76
2023/09/25 04:33:40;;;;;;;1.60;0.90;;;;;;;14.66;90.76;96240.30;110366;1276;22206;-76
2023/09/25 04:36:13;;;;;;;4.70;1.30;;;;;;;14.63;90.93;96243.22;110585;1276;22193;-76
2023/09/25 04:39:02;;;;;;;;;;;;;;;;;;;;;
2023/09/25 04:41:34;;;;;;;12.00;3.50;;;;;;;14.65;91.65;96242.08;110577;1276;22103;-77
2023/09/25 04:44:05;;;;;;;7.30;1.50;;;;;;;14.66;91.53;96250.55;110612;1261;22335;-76
2023/09/25 04:46:54;;;;;;;4.80;1.70;;;;;;;14.70;91.41;96252.95;110586;1276;22171;-76
2023/09/25 04:49:24;;;;;;;7.80;2.20;;;;;;;14.73;91.44;96254.66;110569;1276;22136;-76
2023/09/25 04:51:52;;;;;;;5.20;1.20;;;;;;;14.70;91.24;96258.79;110345;1276;22250;-76
2023/09/25 04:54:23;;;;;;;2.70;0.80;;;;;;;14.66;90.91;96267.73;110575;1276;22094;-76
2023/09/25 04:56:51;;;;;;;5.50;0.70;;;;;;;14.69;91.23;96272.63;110584;1276;22228;-76
2023/09/25 04:59:24;;;;;;;5.90;1.10;;;;;;;14.73;91.17;96275.02;110593;1276;22297;-76
2023/09/25 05:01:59;;;;;;;8.10;1.10;;;;;;;14.77;91.11;96280.23;110435;1276;22145;-76
2023/09/25 05:04:27;;;;;;;79.70;71.70;;;;;;;14.80;90.90;96280.88;110563;1276;22190;-79
2023/09/25 05:07:26;;;;;;;32.70;22.90;;;;;;;14.77;90.81;96282.01;110430;1276;22201;-77
2023/09/25 05:09:55;;;;;;;3.10;2.10;;;;;;;14.76;90.91;96284.17;110548;1276;22268;-77
2023/09/25 05:12:36;;;;;;;6.80;2.80;;;;;;;14.75;91.37;96283.48;110353;1276;22283;-78
2023/09/25 05:15:08;;;;;;;5.00;1.10;;;;;;;14.84;91.99;96284.48;110534;1276;22167;-76
2023/09/25 05:17:56;;;;;;;5.10;1.60;;;;;;;14.87;91.44;96286.00;110412;1276;22200;-76
2023/09/25 05:20:57;;;;;;;5.50;2.70;;;;;;;14.88;91.58;96279.77;110573;1276;22881;-76
2023/09/25 05:23:26;;;;;;;5.50;2.00;;;;;;;14.89;91.75;96284.74;110524;1276;23041;-76
2023/09/25 05:27:05;;;;;;;8.40;2.40;;;;;;;15.08;92.67;96288.17;103964;1305;545028;-81
2023/09/25 05:30:14;;;;;;;6.00;1.90;;;;;;;15.25;92.35;96297.82;106344;1286;22529;-83
2023/09/25 05:33:44;;;;;;;2.80;1.80;;;;;;;15.33;91.69;96297.25;106070;1286;22537;-76
2023/09/25 05:36:37;;;;;;;4.50;1.70;;;;;;;15.41;91.39;96301.84;106910;1277;24496;-77
2023/09/25 05:40:19;;;;;;;3.40;1.30;;;;;;;15.43;91.41;96304.45;102829;1275;5452012;-78
2023/09/25 05:43:00;;;;;;;6.50;1.60;;;;;;;15.39;90.69;96305.09;107046;1275;24284;-77
2023/09/25 05:46:11;;;;;;;;;;;;;;;;;;;;;
2023/09/25 05:49:41;;;;;;;6.00;1.40;;;;;;;15.44;91.12;96309.73;107322;1270;24243;-78
2023/09/25 05:53:01;;;;;;;6.70;1.50;;;;;;;15.42;91.15;96318.48;106982;1275;25402;-76
2023/09/25 05:56:04;;;;;;;3.90;2.10;;;;;;;15.43;91.21;96317.56;107019;1275;23349;-78
2023/09/25 05:59:11;;;;;;;7.50;1.50;;;;;;;15.47;91.16;96315.89;106834;1269;26643;-82
2023/09/25 06:02:23;;;;;;;3.20;1.40;;;;;;;15.46;91.00;96319.08;106651;1277;22569;-81
2023/09/25 06:06:03;;;;;;;3.90;1.50;;;;;;;15.48;91.31;96324.70;106602;1277;22583;-76
2023/09/25 06:09:26;;;;;;;;;;;;;;;;;;;;;
2023/09/25 06:12:39;;;;;;;;;;;;;;;;;;;;;
2023/09/25 06:19:53;;;;;;;5.80;1.30;;;;;;;15.91;91.74;96330.50;106646;1276;25354;-80
2023/09/25 06:23:02;;;;;;;4.80;1.50;;;;;;;16.06;91.49;96323.17;106817;1276;24248;-81
2023/09/25 06:26:10;;;;;;;4.60;1.30;;;;;;;16.24;91.84;96327.61;106817;1276;22516;-77
2023/09/25 06:29:10;;;;;;;4.60;1.60;;;;;;;16.43;91.79;96330.43;107616;1276;22635;-78
2023/09/25 06:32:10;;;;;;;3.30;1.60;;;;;;;16.61;91.27;96333.24;106926;1276;24389;-79
2023/09/25 06:35:27;;;;;;;5.30;1.40;;;;;;;16.61;90.00;96333.77;107491;1272;22588;-82
2023/09/25 06:38:46;;;;;;;;;;;;;;;;;;;;;
2023/09/25 06:41:45;;;;;;;6.80;6.10;;;;;;;16.82;89.92;96334.77;106592;1276;22658;-82
2023/09/25 06:45:00;;;;;;;3.50;1.80;;;;;;;16.88;89.78;96340.07;106611;1277;22666;-79
2023/09/25 06:48:12;;;;;;;3.60;2.50;;;;;;;16.96;89.13;96338.24;106755;1276;23886;-80
2023/09/25 06:51:53;;;;;;;3.10;1.60;;;;;;;16.98;89.22;96343.15;106546;1276;22531;-88
2023/09/25 06:55:23;;;;;;;9.20;1.90;;;;;;;17.16;89.56;96341.70;106729;1274;22666;-80
2023/09/25 06:58:42;;;;;;;3.20;1.90;;;;;;;17.31;89.49;96345.64;106974;1274;25411;-79
2023/09/25 07:02:10;;;;;;;;;;;;;;;;;;;;;
2023/09/25 07:05:40;;;;;;;8.90;4.20;;;;;;;17.68;88.31;96344.73;106930;1274;23369;-80
2023/09/25 07:08:39;;;;;;;6.40;3.30;;;;;;;17.76;88.02;96346.79;106816;1274;26522;-78
2023/09/25 07:11:50;;;;;;;10.80;3.60;;;;;;;17.86;87.84;96347.70;106804;1274;22649;-87
2023/09/25 07:15:20;;;;;;;6.40;2.20;;;;;;;17.97;87.28;96349.98;106810;1274;22516;-84
2023/09/25 07:18:34;;;;;;;4.50;1.60;;;;;;;18.15;86.84;96346.30;106829;1274;26593;-79
2023/09/25 07:21:51;;;;;;;3.60;1.40;;;;;;;18.19;85.14;96345.44;106811;1274;22546;-85
2023/09/25 07:24:38;;;;;;;5.90;2.10;;;;;;;18.16;82.91;96338.27;106778;1274;25332;-83
2023/09/25 07:27:47;;;;;;;6.10;1.30;;;;;;;18.21;83.42;96337.91;107017;1274;23493;-77
2023/09/25 07:31:07;;;;;;;4.90;1.80;;;;;;;18.19;81.90;96337.08;106921;1274;25414;-83
2023/09/25 07:34:14;;;;;;;6.30;1.70;;;;;;;18.22;82.42;96337.86;107354;1274;22646;-76
2023/09/25 07:37:07;;;;;;;3.60;1.40;;;;;;;18.26;81.99;96339.13;106859;1274;22532;-80
2023/09/25 07:40:33;;;;;;;5.60;1.90;;;;;;;18.27;81.96;96343.04;106891;1267;22598;-85
2023/09/25 07:43:23;;;;;;;9.60;2.00;;;;;;;18.23;81.49;96347.09;106837;1273;22778;-79
2023/09/25 07:46:47;;;;;;;8.30;1.40;;;;;;;18.24;82.03;96347.23;106765;1273;25429;-77
2023/09/25 07:49:22;;;;;;;6.30;1.40;;;;;;;18.26;82.32;96346.10;107365;1274;23613;-81
2023/09/25 07:52:33;;;;;;;4.30;1.60;;;;;;;18.31;81.68;96347.67;106769;1267;25352;-80
2023/09/25 07:55:28;;;;;;;4.90;1.10;;;;;;;18.34;81.50;96347.73;106766;1267;24278;-78
2023/09/25 07:58:24;;;;;;;6.60;1.40;;;;;;;18.45;82.33;96349.99;106732;1268;24464;-82
2023/09/25 08:01:14;;;;;;;4.60;1.40;;;;;;;18.56;81.74;96348.35;106988;1267;24420;-76
2023/09/25 08:04:23;;;;;;;6.70;1.20;;;;;;;18.66;81.76;96352.45;106884;1267;23100;-81
2023/09/25 08:07:03;;;;;;;5.20;1.40;;;;;;;18.74;81.24;96349.09;108203;1273;24401;-78
2023/09/25 08:09:56;;;;;;;4.90;1.20;;;;;;;18.74;80.21;96348.73;107029;1267;23018;-78
2023/09/25 08:13:18;;;;;;;5.10;1.60;;;;;;;18.77;80.45;96349.17;107388;1267;22628;-82
2023/09/25 08:16:30;;;;;;;6.90;1.50;;;;;;;18.83;80.83;96350.35;106884;1267;22587;-81
2023/09/25 08:19:21;;;;;;;;;;;;;;;;;;;;;
2023/09/25 08:22:10;;;;;;;4.30;1.70;;;;;;;18.94;79.91;96349.40;106842;1272;22544;-79
2023/09/25 08:25:04;;;;;;;;;;;;;;;;;;;;;
2023/09/25 08:27:48;;;;;;;5.90;2.10;;;;;;;19.16;80.23;96348.54;106906;1274;25429;-80
2023/09/25 08:30:27;;;;;;;8.80;2.10;;;;;;;19.33;80.70;96343.94;106759;1275;25522;-78
2023/09/25 08:33:18;;;;;;;4.30;2.30;;;;;;;19.41;79.70;96339.48;106935;1274;22523;-79
2023/09/25 08:36:12;;;;;;;7.40;1.90;;;;;;;19.49;79.37;96340.42;106979;1274;22638;-84
2023/09/25 08:39:13;;;;;;;8.50;2.00;;;;;;;19.57;79.41;96335.41;107020;1274;25331;-80
2023/09/25 08:42:03;;;;;;;9.40;2.70;;;;;;;19.60;79.18;96330.80;107197;1274;22551;-77
2023/09/25 08:44:57;;;;;;;6.30;2.40;;;;;;;19.62;79.37;96329.83;107094;1274;22604;-77
2023/09/25 08:47:34;;;;;;;7.70;2.10;;;;;;;19.71;79.59;96324.34;110564;1274;22280;-77
2023/09/25 08:50:21;;;;;;;;;;;;;;;;;;;;;
2023/09/25 08:53:01;;;;;;;5.80;2.20;;;;;;;19.83;79.91;96317.72;107020;1274;24390;-76
2023/09/25 08:55:46;;;;;;;7.20;2.10;;;;;;;19.96;79.84;96317.14;107188;1274;22726;-77
2023/09/25 08:58:44;;;;;;;9.10;2.10;;;;;;;20.06;79.68;96311.20;106873;1274;22519;-84
2023/09/25 09:01:29;;;;;;;6.30;2.80;;;;;;;20.21;79.72;96311.95;106871;1274;22555;-77
2023/09/25 09:04:31;;;;;;;12.80;7.90;;;;;;;20.36;79.60;96308.08;106942;1274;25544;-77
2023/09/25 09:07:24;;;;;;;16.30;10.60;;;;;;;20.49;79.26;96306.91;107439;1271;23141;-79
2023/09/25 09:10:16;;;;;;;11.00;3.60;;;;;;;20.62;79.53;96302.58;107132;1274;22516;-78
2023/09/25 09:13:01;;;;;;;9.30;2.90;;;;;;;20.78;79.02;96301.85;106956;1274;25331;-80
2023/09/25 09:15:54;;;;;;;;;;;;;;;;;;;;;
2023/09/25 09:19:06;;;;;;;7.80;3.20;;;;;;;20.93;77.96;96293.42;106759;1274;25477;-78
2023/09/25 09:21:49;;;;;;;;;;;;;;;;;;;;;
2023/09/25 09:24:33;;;;;;;;;;;;;;;;;;;;;
2023/09/25 09:27:17;;;;;;;7.20;3.40;;;;;;;21.17;79.14;96290.98;107047;1273;25376;-82
2023/09/25 09:30:15;;;;;;;;;;;;;;;;;;;;;
2023/09/25 09:33:10;;;;;;;11.20;4.10;;;;;;;21.23;78.41;96289.42;106905;1274;25615;-77
2023/09/25 09:35:49;;;;;;;10.80;4.20;;;;;;;21.39;77.74;96286.51;107032;1274;23010;-82
2023/09/25 09:38:22;;;;;;;8.00;4.50;;;;;;;21.54;77.86;96287.05;106936;1274;22512;-77
2023/09/25 09:40:58;;;;;;;11.20;4.60;;;;;;;21.68;77.47;96287.20;106996;1274;22726;-77
2023/09/25 09:43:32;;;;;;;6.60;5.10;;;;;;;21.77;76.53;96288.19;106999;1260;22525;-77
2023/09/25 09:46:16;;;;;;;10.20;4.20;;;;;;;21.80;75.55;96282.63;106895;1274;25229;-77
2023/09/25 09:48:53;;;;;;;9.80;4.20;;;;;;;21.92;76.24;96278.05;106742;1272;22613;-82
2023/09/25 09:51:27;;;;;;;11.20;4.50;;;;;;;22.05;74.91;96278.63;106676;1274;25236;-80
2023/09/25 09:54:24;;;;;;;7.30;4.40;;;;;;;22.18;73.37;96277.94;106805;1274;24250;-80
2023/09/25 09:56:59;;;;;;;11.80;4.70;;;;;;;22.21;71.63;96277.82;106866;1273;23141;-77
2023/09/25 09:59:41;;;;;;;11.30;4.60;;;;;;;22.19;72.08;96281.46;106816;1273;22525;-79
2023/09/25 10:02:10;;;;;;;10.50;6.40;;;;;;;22.28;71.31;96283.22;107043;1263;22671;-79
2023/09/25 10:04:47;;;;;;;9.80;5.00;;;;;;;22.36;71.20;96280.62;106909;1272;25335;-78
2023/09/25 10:07:28;;;;;;;9.00;4.90;;;;;;;22.43;70.76;96278.80;107042;1274;24256;-77
2023/09/25 10:10:06;;;;;;;11.30;5.00;;;;;;;22.59;71.06;96282.40;106826;1274;22985;-80
2023/09/25 10:12:52;;;;;;;8.00;5.10;;;;;;;22.80;70.20;96288.01;106747;1273;25226;-80
2023/09/25 10:15:30;;;;;;;9.10;5.30;;;;;;;23.06;70.92;96287.66;106912;1273;22531;-83
2023/09/25 10:18:01;;;;;;;10.20;5.00;;;;;;;23.26;69.18;96284.20;106911;1273;24262;-82
2023/09/25 10:21:09;;;;;;;11.70;5.80;;;;;;;23.40;69.80;96285.88;106952;1273;23887;-84
2023/09/25 10:23:47;;;;;;;13.20;5.10;;;;;;;23.57;68.64;96285.79;106763;1273;24265;-84
2023/09/25 10:26:28;;;;;;;9.10;5.90;;;;;;;23.76;68.88;96280.92;106893;1273;23909;-80
2023/09/25 10:29:16;;;;;;;11.70;5.50;;;;;;;23.90;68.12;96275.02;106716;1273;25481;-76
2023/09/25 10:31:48;;;;;;;9.90;5.30;;;;;;;24.09;67.70;96274.23;106741;1274;22514;-83
2023/09/25 10:34:25;;;;;;;10.30;5.40;;;;;;;24.28;66.08;96276.29;106774;1274;22541;-79
2023/09/25 10:37:00;;;;;;;9.10;5.60;;;;;;;24.37;63.50;96274.50;106910;1273;25484;-79
2023/09/25 10:39:37;;;;;;;11.60;5.60;;;;;;;24.48;64.27;96270.91;106873;1273;25357;-84
2023/09/25 10:42:08;;;;;;;11.60;6.10;;;;;;;24.62;64.66;96265.02;106853;1273;25403;-81
2023/09/25 10:44:40;;;;;;;9.20;5.50;;;;;;;24.65;62.39;96263.09;107027;1251;22523;-84
2023/09/25 10:47:11;;;;;;;10.10;5.00;;;;;;;24.73;62.42;96266.27;106865;1273;22569;-81
2023/09/25 10:49:42;;;;;;;8.20;5.10;;;;;;;24.90;62.60;96265.52;106935;1273;22575;-84
2023/09/25 10:52:11;;;;;;;7.70;5.20;;;;;;;25.15;62.24;96267.33;106863;1273;24535;-77
2023/09/25 10:54:39;;;;;;;14.50;5.30;;;;;;;25.29;59.32;96269.33;106735;1274;22749;-82
2023/09/25 10:57:11;;;;;;;12.40;5.10;;;;;;;25.35;59.80;96266.73;106889;1273;24269;-82
2023/09/25 10:59:40;;;;;;;10.50;4.80;;;;;;;25.52;60.19;96263.64;106876;1273;24250;-84
2023/09/25 11:02:13;;;;;;;9.20;4.70;;;;;;;25.76;58.91;96269.97;106853;1273;22587;-84
2023/09/25 11:04:41;;;;;;;13.50;4.70;;;;;;;25.97;57.33;96266.90;107006;1273;25303;-78
2023/09/25 11:07:10;;;;;;;11.60;4.70;;;;;;;26.17;56.89;96268.42;106721;1273;22526;-85
2023/09/25 11:09:38;;;;;;;9.10;5.60;;;;;;;26.50;55.39;96269.70;106819;1273;22538;-80
2023/09/25 11:12:09;;;;;;;9.50;5.00;;;;;;;26.82;56.20;96267.95;106964;1274;22766;-84
2023/09/25 11:14:37;;;;;;;9.70;5.00;;;;;;;27.24;54.04;96265.62;106607;1274;25721;-83
2023/09/25 11:17:05;;;;;;;9.90;4.60;;;;;;;27.64;54.34;96266.79;106724;1274;25383;-78
2023/09/25 11:19:33;;;;;;;9.60;4.40;;;;;;;28.13;52.26;96263.40;106979;1274;24244;-76
2023/09/25 11:22:03;;;;;;;8.50;4.60;;;;;;;28.40;50.66;96259.66;106866;1274;22522;-84
2023/09/25 11:24:33;;;;;;;8.30;4.70;;;;;;;28.64;49.07;96257.58;106689;1274;22612;-79
2023/09/25 11:27:07;;;;;;;9.00;4.20;;;;;;;28.75;48.61;96255.41;106851;1273;22752;-75
2023/09/25 11:29:35;;;;;;;7.00;4.10;;;;;;;28.77;47.32;96257.77;106784;1273;22574;-76
2023/09/25 11:32:04;;;;;;;10.60;4.20;;;;;;;28.64;46.33;96259.73;106918;1274;22529;-75
2023/09/25 11:34:32;;;;;;;11.20;4.20;;;;;;;28.72;46.09;96258.91;106871;1272;22641;-80
2023/09/25 11:37:02;;;;;;;8.90;4.30;;;;;;;28.85;46.90;96257.66;106838;1273;25340;-82
2023/09/25 11:39:32;;;;;;;8.60;4.20;;;;;;;28.88;45.32;96257.27;106766;1273;22519;-77
2023/09/25 11:42:00;;;;;;;7.00;4.10;;;;;;;28.93;44.68;96255.73;106849;1273;22633;-78
2023/09/25 11:44:29;;;;;;;8.50;4.00;;;;;;;29.10;44.87;96251.30;106713;1273;25481;-81
2023/09/25 11:46:58;;;;;;;8.30;4.30;;;;;;;29.27;44.41;96249.70;106836;1274;25220;-83
2023/09/25 11:49:26;;;;;;;7.40;4.00;;;;;;;29.43;44.67;96253.83;106812;1274;24368;-83
2023/09/25 11:51:54;;;;;;;9.00;4.10;;;;;;;29.77;44.17;96253.90;106812;1273;25344;-79
2023/09/25 11:54:22;;;;;;;12.40;4.40;;;;;;;30.01;41.71;96243.71;107155;1273;22523;-81
2023/09/25 11:56:51;;;;;;;13.30;4.10;;;;;;;30.07;40.94;96244.08;107102;1274;25335;-82
2023/09/25 11:59:20;;;;;;;11.80;6.20;;;;;;;30.05;40.15;96244.26;107062;1274;25356;-81
2023/09/25 12:01:50;;;;;;;7.30;3.70;;;;;;;30.22;41.74;96246.58;106826;1273;22547;-86
2023/09/25 12:04:19;;;;;;;6.90;3.70;;;;;;;30.46;40.37;96239.67;106840;1274;22524;-75
2023/09/25 12:06:47;;;;;;;11.90;4.30;;;;;;;30.39;39.15;96237.52;106894;1274;25341;-76
2023/09/25 12:09:16;;;;;;;10.30;4.00;;;;;;;30.38;39.83;96238.72;106821;1251;22639;-78
2023/09/25 12:11:45;;;;;;;12.90;3.90;;;;;;;30.44;39.54;96235.65;107078;1274;23877;-81
2023/09/25 12:14:14;;;;;;;9.50;3.90;;;;;;;30.49;38.77;96240.12;106995;1274;25399;-79
2023/09/25 12:16:42;;;;;;;10.10;4.00;;;;;;;30.61;38.72;96242.70;106823;1274;25551;-78
2023/09/25 12:19:11;;;;;;;7.80;4.20;;;;;;;30.80;38.52;96243.92;106949;1274;22523;-85
2023/09/25 12:21:42;;;;;;;7.90;3.80;;;;;;;31.10;39.44;96241.02;107001;1274;22557;-85
2023/09/25 12:24:11;;;;;;;11.30;4.20;;;;;;;31.49;39.94;96236.35;106838;1273;22788;-76
2023/09/25 12:26:39;;;;;;;7.80;4.00;;;;;;;31.91;38.63;96233.42;106717;1274;25284;-79
2023/09/25 12:29:07;;;;;;;8.20;3.70;;;;;;;32.12;36.77;96235.84;107069;1270;22513;-76
2023/09/25 12:31:36;;;;;;;6.00;3.70;;;;;;;32.03;35.53;96232.05;106791;1274;25315;-76
2023/09/25 12:34:04;;;;;;;9.10;4.10;;;;;;;32.00;36.77;96235.30;106894;1274;22672;-82
2023/09/25 12:36:32;;;;;;;9.30;4.00;;;;;;;32.27;36.07;96238.57;106957;1274;25353;-76
2023/09/25 12:39:01;;;;;;;9.90;3.70;;;;;;;32.40;35.68;96242.77;106800;1273;22532;-75
2023/09/25 12:41:29;;;;;;;8.20;3.90;;;;;;;32.14;33.82;96238.33;106842;1274;24357;-82
2023/09/25 12:43:57;;;;;;;6.10;3.70;;;;;;;31.83;35.11;96241.98;107034;1251;22520;-86
2023/09/25 12:46:25;;;;;;;8.50;4.20;;;;;;;31.78;34.82;96247.20;106930;1273;22585;-76
2023/09/25 12:48:53;;;;;;;4.70;3.70;;;;;;;31.71;34.67;96247.23;107052;1273;22635;-83
2023/09/25 12:51:21;;;;;;;11.50;6.10;;;;;;;31.80;34.56;96242.58;106807;1274;24205;-77